Terminal Aerodrome Forecast
Issued by NWS

Home | Current Version | Previous Version | Text Only | Print | Product List | Glossary On
Versions: 1 2 3 4 5 6 7 8 9 10 11 12 13 14 15
000
FTAK31 PAJN 271700
TAFAWG
TAF
PAWG 271723Z 2718/2818 31006KT P6SM FEW020 BKN040
     FM272100 VRB05KT P6SM SCT020
     FM272200 09007KT P6SM SKC
     FM280800 07007G14KT P6SM SKC
      AMD LTD TO CLD VIS AND WIND 2806/2815=

USA.gov is the U.S. government's official web portal to all federal, state and local government web resources and services.